createdAt,value
2023-05-10T00:01:22.872Z,7.38
2023-05-10T00:06:24.839Z,7.17
2023-05-10T00:11:26.781Z,7.10
2023-05-10T00:16:28.777Z,7.10
2023-05-10T00:21:30.790Z,7.10
2023-05-10T00:26:32.727Z,6.90
2023-05-10T00:31:34.754Z,7.23
2023-05-10T00:36:36.720Z,6.35
2023-05-10T00:41:38.636Z,7.10
2023-05-10T00:46:40.591Z,6.17
2023-05-10T00:51:42.511Z,6.43
2023-05-10T00:56:44.438Z,6.00
2023-05-10T01:01:46.672Z,6.57
2023-05-10T01:06:48.712Z,5.88
2023-05-10T01:11:50.586Z,6.20
2023-05-10T01:16:52.587Z,6.43
2023-05-10T01:22:03.319Z,6.30
2023-05-10T01:27:33.524Z,6.50
2023-05-10T01:32:55.278Z,6.63
2023-05-10T01:38:13.582Z,5.95
2023-05-10T01:43:20.578Z,6.10
2023-05-10T01:48:22.584Z,6.38
2023-05-10T01:53:24.532Z,6.30
2023-05-10T01:58:31.540Z,6.67
2023-05-10T02:03:33.676Z,5.82
2023-05-10T02:08:35.530Z,6.25
2023-05-10T02:13:37.332Z,6.50
2023-05-10T02:18:39.271Z,6.37
2023-05-10T02:23:41.339Z,6.33
2023-05-10T02:28:43.288Z,6.40
2023-05-10T02:33:45.193Z,6.87
2023-05-10T02:38:47.012Z,7.10
2023-05-10T02:43:49.378Z,6.70
2023-05-10T02:48:51.250Z,6.82
2023-05-10T02:53:53.138Z,6.53
2023-05-10T02:58:55.005Z,7.03
2023-05-10T03:03:56.918Z,7.03
2023-05-10T03:08:58.742Z,4.73
2023-05-10T03:14:26.307Z,7.07
2023-05-10T03:19:33.687Z,7.68
2023-05-10T03:24:35.722Z,7.13
2023-05-10T03:29:37.552Z,7.50
2023-05-10T03:34:42.897Z,7.37
2023-05-10T03:39:44.917Z,7.18
2023-05-10T03:44:46.776Z,7.00
2023-05-10T03:49:48.639Z,6.97
2023-05-10T03:54:50.558Z,7.43
2023-05-10T03:59:52.456Z,6.30
2023-05-10T04:04:54.369Z,6.97
2023-05-10T04:09:56.281Z,7.60
2023-05-10T04:14:58.272Z,6.80
2023-05-10T04:20:00.233Z,7.45
2023-05-10T04:25:02.128Z,6.53
2023-05-10T04:30:06.772Z,7.05
2023-05-10T04:35:09.566Z,7.10
2023-05-10T04:40:11.860Z,6.90
2023-05-10T04:45:13.796Z,6.00
2023-05-10T04:50:16.013Z,6.10
2023-05-10T04:55:18.249Z,5.38
2023-05-10T05:00:20.544Z,5.45
2023-05-10T05:05:22.492Z,5.72
2023-05-10T05:10:24.392Z,6.37
2023-05-10T05:15:26.318Z,6.38
2023-05-10T05:20:28.196Z,5.55
2023-05-10T05:25:30.093Z,4.85
2023-05-10T05:30:32.061Z,4.78
2023-05-10T05:35:34.175Z,4.63
2023-05-10T05:40:36.091Z,4.50
2023-05-10T05:45:38.029Z,3.60
2023-05-10T05:50:39.938Z,4.45
2023-05-10T05:55:41.749Z,3.30
2023-05-10T06:00:43.657Z,3.15
2023-05-10T06:05:45.538Z,3.20
2023-05-10T06:10:47.461Z,3.20
2023-05-10T06:15:49.299Z,3.40
2023-05-10T06:20:51.415Z,3.60
2023-05-10T06:25:53.440Z,5.40
2023-05-10T06:30:55.367Z,2.90
2023-05-10T06:35:57.240Z,2.70
2023-05-10T06:40:59.124Z,2.83
2023-05-10T06:46:01.191Z,2.72
2023-05-10T06:51:03.161Z,3.17
2023-05-10T06:56:05.181Z,3.10
2023-05-10T07:06:15.656Z,2.80
2023-05-10T07:11:20.590Z,3.00
2023-05-10T07:16:22.563Z,2.70
2023-05-10T07:21:24.489Z,2.67
2023-05-10T07:26:26.372Z,2.67
2023-05-10T07:31:28.170Z,2.95
2023-05-10T07:36:29.996Z,2.80
2023-05-10T07:41:31.815Z,2.63
2023-05-10T07:46:33.701Z,2.40
2023-05-10T07:51:35.608Z,2.38
2023-05-10T08:01:39.053Z,2.38
2023-05-10T08:06:41.333Z,2.13
2023-05-10T08:11:43.297Z,2.17
2023-05-10T08:21:46.952Z,2.38
2023-05-10T08:31:50.603Z,2.33
2023-05-10T08:36:52.493Z,2.30
2023-05-10T08:41:54.847Z,2.13
2023-05-10T08:46:56.678Z,1.83
2023-05-10T08:51:58.603Z,2.28
2023-05-10T08:57:00.471Z,1.92
2023-05-10T09:02:02.395Z,2.13
2023-05-10T09:07:04.313Z,1.85
2023-05-10T09:12:06.406Z,2.20
2023-05-10T09:22:10.318Z,1.90
2023-05-10T09:27:12.323Z,2.35
2023-05-10T09:32:14.152Z,1.92
2023-05-10T09:37:16.006Z,2.05
2023-05-10T09:42:19.309Z,1.73
2023-05-10T09:47:21.216Z,2.05
2023-05-10T09:52:23.101Z,1.95
2023-05-10T09:57:25.336Z,2.20
2023-05-10T10:02:29.897Z,1.88
2023-05-10T10:07:31.765Z,2.13
2023-05-10T10:12:33.621Z,1.70
2023-05-10T10:17:36.609Z,2.05
2023-05-10T10:22:38.740Z,2.15
2023-05-10T10:33:28.703Z,2.00
2023-05-10T10:38:48.982Z,2.15
2023-05-10T10:43:50.861Z,2.55
2023-05-10T10:49:09.937Z,1.95
2023-05-10T10:54:12.460Z,2.00
2023-05-10T10:59:14.297Z,1.80
2023-05-10T11:04:19.692Z,1.85
2023-05-10T11:09:21.659Z,2.10
2023-05-10T11:14:23.511Z,2.05
2023-05-10T11:19:26.057Z,2.20
2023-05-10T11:24:29.413Z,2.20
2023-05-10T11:34:33.008Z,2.17
2023-05-10T11:44:36.487Z,1.92
2023-05-10T11:49:38.415Z,1.77
2023-05-10T11:54:53.170Z,2.03
2023-05-10T11:59:55.280Z,2.15
2023-05-10T12:10:08.737Z,1.63
2023-05-10T12:15:23.497Z,2.03
2023-05-10T12:20:28.013Z,1.83
2023-05-10T12:25:37.028Z,2.00
2023-05-10T12:30:39.177Z,2.05
2023-05-10T12:35:54.557Z,2.20
2023-05-10T12:41:01.369Z,2.20
2023-05-10T12:46:08.458Z,2.17
2023-05-10T12:51:11.072Z,2.00
2023-05-10T12:56:13.037Z,1.80
2023-05-10T13:01:15.552Z,1.77
2023-05-10T13:06:17.475Z,1.75
2023-05-10T13:11:19.397Z,2.08
2023-05-10T13:16:21.525Z,2.20
2023-05-10T13:26:25.113Z,2.05
2023-05-10T13:31:26.981Z,2.55
2023-05-10T13:36:29.016Z,2.20
2023-05-10T13:41:30.858Z,2.00
2023-05-10T13:46:33.073Z,2.00
2023-05-10T13:56:37.774Z,2.20
2023-05-10T14:01:39.799Z,1.85
2023-05-10T14:06:41.745Z,2.10
2023-05-10T14:11:43.554Z,2.08
2023-05-10T14:16:45.794Z,2.22
2023-05-10T14:26:49.429Z,2.10
2023-05-10T14:31:51.377Z,2.28
2023-05-10T14:36:53.303Z,2.17
2023-05-10T14:41:55.158Z,2.20
2023-05-10T14:46:56.983Z,2.42
2023-05-10T14:51:58.804Z,2.28
2023-05-10T14:57:00.713Z,2.30
2023-05-10T15:02:02.650Z,2.10
2023-05-10T15:12:06.521Z,2.47
2023-05-10T15:17:08.505Z,2.42
2023-05-10T15:22:10.582Z,2.42
2023-05-10T15:27:12.756Z,2.10
2023-05-10T15:32:14.753Z,2.42
2023-05-10T15:37:16.553Z,2.30
2023-05-10T15:42:18.462Z,2.42
2023-05-10T15:47:20.397Z,2.33
2023-05-10T15:52:22.313Z,2.42
2023-05-10T15:57:24.231Z,7.93
2023-05-10T16:02:26.283Z,2.72
2023-05-10T16:07:28.202Z,2.30
2023-05-10T16:12:32.579Z,2.38
2023-05-10T16:17:34.520Z,2.40
2023-05-10T16:22:36.489Z,2.92
2023-05-10T16:27:38.409Z,2.20
2023-05-10T16:32:40.435Z,3.25
2023-05-10T16:37:42.412Z,2.53
2023-05-10T16:42:44.433Z,2.97
2023-05-10T16:47:46.548Z,2.80
2023-05-10T16:52:48.836Z,2.83
2023-05-10T16:57:50.723Z,3.10
2023-05-10T17:02:52.827Z,2.50
2023-05-10T17:07:54.730Z,4.10
2023-05-10T17:12:56.694Z,4.07
2023-05-10T17:17:58.680Z,2.95
2023-05-10T17:23:00.595Z,2.95
2023-05-10T17:28:03.357Z,3.63
2023-05-10T17:33:05.366Z,5.15
2023-05-10T17:38:07.473Z,4.32
2023-05-10T17:43:09.398Z,4.80
2023-05-10T17:48:11.530Z,4.95
2023-05-10T17:53:13.482Z,3.92
2023-05-10T17:58:15.411Z,4.13
2023-05-10T18:03:17.252Z,7.18
2023-05-10T18:08:19.137Z,7.93
2023-05-10T18:13:21.072Z,6.40
2023-05-10T18:18:23.014Z,5.65
2023-05-10T18:23:25.005Z,6.07
2023-05-10T18:28:26.828Z,5.57
2023-05-10T18:33:28.692Z,5.00
2023-05-10T18:38:30.609Z,5.63
2023-05-10T18:43:32.681Z,5.63
2023-05-10T18:48:34.680Z,5.15
2023-05-10T18:53:37.277Z,5.70
2023-05-10T18:58:39.242Z,6.85
2023-05-10T19:03:41.194Z,7.45
2023-05-10T19:08:43.027Z,5.90
2023-05-10T19:13:45.588Z,5.97
2023-05-10T19:18:47.599Z,5.90
2023-05-10T19:23:49.627Z,4.85
2023-05-10T19:28:51.756Z,4.97
2023-05-10T19:33:53.790Z,4.60
2023-05-10T19:38:55.904Z,4.45
2023-05-10T19:43:57.753Z,5.07
2023-05-10T19:48:59.640Z,4.97
2023-05-10T19:54:01.626Z,5.15
2023-05-10T19:59:03.483Z,4.82
2023-05-10T20:04:05.473Z,4.10
2023-05-10T20:09:07.431Z,5.60
2023-05-10T20:14:09.378Z,4.10
2023-05-10T20:19:11.523Z,4.80
2023-05-10T20:24:13.694Z,5.45
2023-05-10T20:29:15.716Z,4.85
2023-05-10T20:34:17.657Z,6.30
2023-05-10T20:39:19.644Z,3.55
2023-05-10T20:44:21.578Z,5.97
2023-05-10T20:49:23.550Z,23.10
2023-05-10T20:54:25.426Z,7.10
2023-05-10T20:59:27.263Z,10.20
2023-05-10T21:04:29.315Z,13.32
2023-05-10T21:09:31.216Z,10.77
2023-05-10T21:14:33.085Z,8.02
2023-05-10T21:19:34.925Z,7.25
2023-05-10T21:24:36.828Z,5.13
2023-05-10T21:29:38.797Z,5.10
2023-05-10T21:34:40.622Z,4.30
2023-05-10T21:39:42.416Z,3.87
2023-05-10T21:44:44.290Z,3.87
2023-05-10T21:49:46.173Z,4.20
2023-05-10T21:54:48.073Z,3.83
2023-05-10T21:59:49.942Z,3.40
2023-05-10T22:04:51.816Z,3.83
2023-05-10T22:09:53.678Z,4.23
2023-05-10T22:15:09.505Z,5.50
2023-05-10T22:20:12.210Z,4.00
2023-05-10T22:25:14.213Z,4.70
2023-05-10T22:30:16.389Z,4.50
2023-05-10T22:35:18.526Z,4.25
2023-05-10T22:40:20.417Z,4.70
2023-05-10T22:45:22.574Z,4.95
2023-05-10T22:50:24.438Z,4.97
2023-05-10T22:55:26.408Z,4.70
2023-05-10T23:00:28.331Z,4.57
2023-05-10T23:05:30.235Z,4.50
2023-05-10T23:10:32.258Z,3.23
2023-05-10T23:15:34.301Z,4.97
2023-05-10T23:20:36.135Z,5.30
2023-05-10T23:25:38.322Z,5.27
2023-05-10T23:30:40.258Z,5.40
2023-05-10T23:35:42.614Z,5.82
2023-05-10T23:40:48.130Z,6.30
2023-05-10T23:45:56.459Z,6.50
2023-05-10T23:50:58.468Z,5.97
2023-05-10T23:56:00.286Z,6.00
